sensor_id;sensor_type;location;lat;lon;timestamp;P1;durP1;ratioP1;P2;durP2;ratioP2
69854;SDS011;57146;48.140;16.304;2022-07-31T00:02:07;5.00;;;2.47;;
69854;SDS011;57146;48.140;16.304;2022-07-31T00:04:34;3.88;;;1.90;;
69854;SDS011;57146;48.140;16.304;2022-07-31T00:07:01;5.47;;;2.20;;
69854;SDS011;57146;48.140;16.304;2022-07-31T00:09:29;5.72;;;2.08;;
69854;SDS011;57146;48.140;16.304;2022-07-31T00:12:16;4.50;;;2.13;;
69854;SDS011;57146;48.140;16.304;2022-07-31T00:14:43;4.10;;;2.00;;
69854;SDS011;57146;48.140;16.304;2022-07-31T00:17:10;4.47;;;1.92;;
69854;SDS011;57146;48.140;16.304;2022-07-31T00:19:37;4.35;;;1.80;;
69854;SDS011;57146;48.140;16.304;2022-07-31T00:22:04;4.50;;;1.98;;
69854;SDS011;57146;48.140;16.304;2022-07-31T00:24:31;5.18;;;1.77;;
69854;SDS011;57146;48.140;16.304;2022-07-31T00:26:59;5.13;;;2.08;;
69854;SDS011;57146;48.140;16.304;2022-07-31T00:29:26;4.65;;;1.60;;
69854;SDS011;57146;48.140;16.304;2022-07-31T00:31:53;4.30;;;1.85;;
69854;SDS011;57146;48.140;16.304;2022-07-31T00:34:20;3.75;;;1.73;;
69854;SDS011;57146;48.140;16.304;2022-07-31T00:36:47;4.35;;;1.60;;
69854;SDS011;57146;48.140;16.304;2022-07-31T00:39:14;4.72;;;1.73;;
69854;SDS011;57146;48.140;16.304;2022-07-31T00:41:42;4.20;;;2.00;;
69854;SDS011;57146;48.140;16.304;2022-07-31T00:44:12;4.53;;;2.15;;
69854;SDS011;57146;48.140;16.304;2022-07-31T00:46:39;4.60;;;2.08;;
69854;SDS011;57146;48.140;16.304;2022-07-31T00:49:08;4.30;;;2.05;;
69854;SDS011;57146;48.140;16.304;2022-07-31T00:51:36;3.97;;;1.83;;
69854;SDS011;57146;48.140;16.304;2022-07-31T00:54:07;4.30;;;1.80;;
69854;SDS011;57146;48.140;16.304;2022-07-31T00:56:41;5.65;;;1.98;;
69854;SDS011;57146;48.140;16.304;2022-07-31T00:59:08;5.07;;;2.22;;
69854;SDS011;57146;48.140;16.304;2022-07-31T01:01:35;5.05;;;2.10;;
69854;SDS011;57146;48.140;16.304;2022-07-31T01:04:02;5.07;;;1.95;;
69854;SDS011;57146;48.140;16.304;2022-07-31T01:06:31;5.25;;;2.15;;
69854;SDS011;57146;48.140;16.304;2022-07-31T01:08:59;4.40;;;1.98;;
69854;SDS011;57146;48.140;16.304;2022-07-31T01:11:34;4.35;;;2.00;;
69854;SDS011;57146;48.140;16.304;2022-07-31T01:14:08;4.50;;;2.05;;
69854;SDS011;57146;48.140;16.304;2022-07-31T01:16:37;4.07;;;1.98;;
69854;SDS011;57146;48.140;16.304;2022-07-31T01:19:29;3.88;;;1.92;;
69854;SDS011;57146;48.140;16.304;2022-07-31T01:31:19;4.57;;;1.73;;
69854;SDS011;57146;48.140;16.304;2022-07-31T01:36:57;3.38;;;1.67;;
69854;SDS011;57146;48.140;16.304;2022-07-31T01:39:31;6.60;;;1.90;;
69854;SDS011;57146;48.140;16.304;2022-07-31T01:42:02;4.25;;;1.85;;
69854;SDS011;57146;48.140;16.304;2022-07-31T01:44:34;4.10;;;1.80;;
69854;SDS011;57146;48.140;16.304;2022-07-31T01:47:07;3.90;;;2.03;;
69854;SDS011;57146;48.140;16.304;2022-07-31T01:49:37;4.85;;;1.95;;
69854;SDS011;57146;48.140;16.304;2022-07-31T01:52:06;4.70;;;1.80;;
69854;SDS011;57146;48.140;16.304;2022-07-31T01:54:35;4.38;;;2.00;;
69854;SDS011;57146;48.140;16.304;2022-07-31T01:57:04;4.38;;;2.00;;
69854;SDS011;57146;48.140;16.304;2022-07-31T01:59:40;4.10;;;1.67;;
69854;SDS011;57146;48.140;16.304;2022-07-31T02:02:23;5.10;;;2.20;;
69854;SDS011;57146;48.140;16.304;2022-07-31T02:04:52;5.15;;;1.90;;
69854;SDS011;57146;48.140;16.304;2022-07-31T02:07:20;4.85;;;2.08;;
69854;SDS011;57146;48.140;16.304;2022-07-31T02:09:48;4.43;;;2.03;;
69854;SDS011;57146;48.140;16.304;2022-07-31T02:12:28;4.78;;;2.00;;
69854;SDS011;57146;48.140;16.304;2022-07-31T02:15:02;4.85;;;2.30;;
69854;SDS011;57146;48.140;16.304;2022-07-31T02:17:35;4.57;;;2.30;;
69854;SDS011;57146;48.140;16.304;2022-07-31T02:20:32;3.45;;;1.90;;
69854;SDS011;57146;48.140;16.304;2022-07-31T02:22:59;5.32;;;2.20;;
69854;SDS011;57146;48.140;16.304;2022-07-31T02:25:26;6.07;;;2.30;;
69854;SDS011;57146;48.140;16.304;2022-07-31T02:27:55;4.30;;;2.25;;
69854;SDS011;57146;48.140;16.304;2022-07-31T02:30:29;4.10;;;2.38;;
69854;SDS011;57146;48.140;16.304;2022-07-31T02:33:07;4.93;;;2.33;;
69854;SDS011;57146;48.140;16.304;2022-07-31T02:35:38;4.85;;;2.28;;
69854;SDS011;57146;48.140;16.304;2022-07-31T02:38:13;4.10;;;2.10;;
69854;SDS011;57146;48.140;16.304;2022-07-31T02:40:52;5.35;;;2.30;;
69854;SDS011;57146;48.140;16.304;2022-07-31T02:43:22;4.20;;;2.20;;
69854;SDS011;57146;48.140;16.304;2022-07-31T02:45:53;5.13;;;2.30;;
69854;SDS011;57146;48.140;16.304;2022-07-31T02:48:23;5.63;;;2.30;;
69854;SDS011;57146;48.140;16.304;2022-07-31T02:50:54;5.28;;;2.70;;
69854;SDS011;57146;48.140;16.304;2022-07-31T02:53:22;4.47;;;2.00;;
69854;SDS011;57146;48.140;16.304;2022-07-31T02:55:53;5.63;;;2.50;;
69854;SDS011;57146;48.140;16.304;2022-07-31T02:58:21;4.80;;;2.60;;
69854;SDS011;57146;48.140;16.304;2022-07-31T03:00:56;5.10;;;2.60;;
69854;SDS011;57146;48.140;16.304;2022-07-31T03:03:29;5.38;;;2.58;;
69854;SDS011;57146;48.140;16.304;2022-07-31T03:05:56;5.38;;;2.60;;
69854;SDS011;57146;48.140;16.304;2022-07-31T03:08:23;4.68;;;2.63;;
69854;SDS011;57146;48.140;16.304;2022-07-31T03:10:52;7.22;;;2.97;;
69854;SDS011;57146;48.140;16.304;2022-07-31T03:13:19;5.97;;;3.00;;
69854;SDS011;57146;48.140;16.304;2022-07-31T03:15:50;4.78;;;2.72;;
69854;SDS011;57146;48.140;16.304;2022-07-31T03:18:17;5.38;;;2.15;;
69854;SDS011;57146;48.140;16.304;2022-07-31T03:20:45;4.80;;;2.17;;
69854;SDS011;57146;48.140;16.304;2022-07-31T03:23:13;4.50;;;2.25;;
69854;SDS011;57146;48.140;16.304;2022-07-31T03:25:50;5.30;;;2.47;;
69854;SDS011;57146;48.140;16.304;2022-07-31T03:28:19;5.68;;;2.80;;
69854;SDS011;57146;48.140;16.304;2022-07-31T03:30:49;5.30;;;2.47;;
69854;SDS011;57146;48.140;16.304;2022-07-31T03:33:24;4.50;;;2.70;;
69854;SDS011;57146;48.140;16.304;2022-07-31T03:35:52;4.63;;;2.78;;
69854;SDS011;57146;48.140;16.304;2022-07-31T03:38:19;5.28;;;2.35;;
69854;SDS011;57146;48.140;16.304;2022-07-31T03:41:08;4.88;;;2.50;;
69854;SDS011;57146;48.140;16.304;2022-07-31T03:43:36;6.05;;;2.90;;
69854;SDS011;57146;48.140;16.304;2022-07-31T03:46:16;6.13;;;2.75;;
69854;SDS011;57146;48.140;16.304;2022-07-31T03:48:46;4.57;;;2.20;;
69854;SDS011;57146;48.140;16.304;2022-07-31T03:51:14;3.70;;;2.00;;
69854;SDS011;57146;48.140;16.304;2022-07-31T03:53:42;4.18;;;2.25;;
69854;SDS011;57146;48.140;16.304;2022-07-31T03:56:26;5.18;;;2.00;;
69854;SDS011;57146;48.140;16.304;2022-07-31T03:58:54;4.10;;;1.88;;
69854;SDS011;57146;48.140;16.304;2022-07-31T04:01:22;4.07;;;2.10;;
69854;SDS011;57146;48.140;16.304;2022-07-31T04:03:57;5.05;;;2.20;;
69854;SDS011;57146;48.140;16.304;2022-07-31T04:06:39;4.43;;;2.15;;
69854;SDS011;57146;48.140;16.304;2022-07-31T04:09:06;4.90;;;2.10;;
69854;SDS011;57146;48.140;16.304;2022-07-31T04:11:46;4.72;;;2.15;;
69854;SDS011;57146;48.140;16.304;2022-07-31T04:14:14;5.95;;;2.10;;
69854;SDS011;57146;48.140;16.304;2022-07-31T04:16:42;4.75;;;2.25;;
69854;SDS011;57146;48.140;16.304;2022-07-31T04:19:09;4.47;;;2.15;;
69854;SDS011;57146;48.140;16.304;2022-07-31T04:21:36;4.10;;;2.17;;
69854;SDS011;57146;48.140;16.304;2022-07-31T04:24:03;4.50;;;2.30;;
69854;SDS011;57146;48.140;16.304;2022-07-31T04:26:55;4.82;;;2.13;;
69854;SDS011;57146;48.140;16.304;2022-07-31T04:29:30;4.25;;;2.13;;
69854;SDS011;57146;48.140;16.304;2022-07-31T04:31:57;6.40;;;2.10;;
69854;SDS011;57146;48.140;16.304;2022-07-31T04:34:31;4.80;;;2.38;;
69854;SDS011;57146;48.140;16.304;2022-07-31T04:36:58;4.22;;;2.10;;
69854;SDS011;57146;48.140;16.304;2022-07-31T04:39:25;4.60;;;2.00;;
69854;SDS011;57146;48.140;16.304;2022-07-31T04:41:53;4.22;;;2.33;;
69854;SDS011;57146;48.140;16.304;2022-07-31T04:44:21;4.97;;;2.40;;
69854;SDS011;57146;48.140;16.304;2022-07-31T04:46:56;4.75;;;2.40;;
69854;SDS011;57146;48.140;16.304;2022-07-31T04:49:24;3.78;;;2.10;;
69854;SDS011;57146;48.140;16.304;2022-07-31T04:51:51;3.95;;;2.13;;
69854;SDS011;57146;48.140;16.304;2022-07-31T04:54:19;3.67;;;1.83;;
69854;SDS011;57146;48.140;16.304;2022-07-31T04:56:46;4.18;;;2.30;;
69854;SDS011;57146;48.140;16.304;2022-07-31T04:59:13;5.30;;;2.30;;
69854;SDS011;57146;48.140;16.304;2022-07-31T05:01:45;4.43;;;2.40;;
69854;SDS011;57146;48.140;16.304;2022-07-31T05:04:15;4.95;;;2.50;;
69854;SDS011;57146;48.140;16.304;2022-07-31T05:06:44;5.85;;;2.50;;
69854;SDS011;57146;48.140;16.304;2022-07-31T05:09:13;4.43;;;2.42;;
69854;SDS011;57146;48.140;16.304;2022-07-31T05:11:46;5.43;;;2.60;;
69854;SDS011;57146;48.140;16.304;2022-07-31T05:14:15;5.95;;;2.70;;
69854;SDS011;57146;48.140;16.304;2022-07-31T05:16:43;4.75;;;2.40;;
69854;SDS011;57146;48.140;16.304;2022-07-31T05:19:11;5.22;;;2.78;;
69854;SDS011;57146;48.140;16.304;2022-07-31T05:21:59;6.43;;;2.60;;
69854;SDS011;57146;48.140;16.304;2022-07-31T05:24:33;6.65;;;2.78;;
69854;SDS011;57146;48.140;16.304;2022-07-31T05:27:04;5.50;;;2.35;;
69854;SDS011;57146;48.140;16.304;2022-07-31T05:29:31;5.68;;;2.40;;
69854;SDS011;57146;48.140;16.304;2022-07-31T05:31:59;4.53;;;2.42;;
69854;SDS011;57146;48.140;16.304;2022-07-31T05:34:30;5.60;;;2.43;;
69854;SDS011;57146;48.140;16.304;2022-07-31T05:36:58;5.32;;;2.45;;
69854;SDS011;57146;48.140;16.304;2022-07-31T05:39:27;6.95;;;2.53;;
69854;SDS011;57146;48.140;16.304;2022-07-31T05:42:13;4.50;;;2.30;;
69854;SDS011;57146;48.140;16.304;2022-07-31T05:44:58;5.32;;;2.40;;
69854;SDS011;57146;48.140;16.304;2022-07-31T05:47:25;5.10;;;2.67;;
69854;SDS011;57146;48.140;16.304;2022-07-31T05:50:08;4.47;;;2.38;;
69854;SDS011;57146;48.140;16.304;2022-07-31T05:52:35;5.10;;;2.33;;
69854;SDS011;57146;48.140;16.304;2022-07-31T05:55:14;4.45;;;2.10;;
69854;SDS011;57146;48.140;16.304;2022-07-31T05:58:01;6.68;;;2.40;;
69854;SDS011;57146;48.140;16.304;2022-07-31T06:00:28;4.17;;;2.20;;
69854;SDS011;57146;48.140;16.304;2022-07-31T06:02:58;4.47;;;2.25;;
69854;SDS011;57146;48.140;16.304;2022-07-31T06:05:54;6.88;;;2.53;;
69854;SDS011;57146;48.140;16.304;2022-07-31T06:08:22;4.93;;;2.33;;
69854;SDS011;57146;48.140;16.304;2022-07-31T06:10:50;6.75;;;2.00;;
69854;SDS011;57146;48.140;16.304;2022-07-31T06:13:17;3.72;;;1.80;;
69854;SDS011;57146;48.140;16.304;2022-07-31T06:15:46;4.55;;;1.90;;
69854;SDS011;57146;48.140;16.304;2022-07-31T06:18:15;4.88;;;1.77;;
69854;SDS011;57146;48.140;16.304;2022-07-31T06:20:42;4.45;;;1.50;;
69854;SDS011;57146;48.140;16.304;2022-07-31T06:23:09;4.13;;;1.65;;
69854;SDS011;57146;48.140;16.304;2022-07-31T06:25:54;3.33;;;1.40;;
69854;SDS011;57146;48.140;16.304;2022-07-31T06:28:21;5.00;;;1.60;;
69854;SDS011;57146;48.140;16.304;2022-07-31T06:31:14;4.72;;;1.33;;
69854;SDS011;57146;48.140;16.304;2022-07-31T06:33:45;3.90;;;1.58;;
69854;SDS011;57146;48.140;16.304;2022-07-31T06:36:16;4.43;;;1.48;;
69854;SDS011;57146;48.140;16.304;2022-07-31T06:38:55;3.40;;;1.40;;
69854;SDS011;57146;48.140;16.304;2022-07-31T06:41:42;3.25;;;1.23;;
69854;SDS011;57146;48.140;16.304;2022-07-31T06:44:27;3.70;;;1.42;;
69854;SDS011;57146;48.140;16.304;2022-07-31T06:47:15;4.28;;;1.90;;
69854;SDS011;57146;48.140;16.304;2022-07-31T06:49:52;4.05;;;1.40;;
69854;SDS011;57146;48.140;16.304;2022-07-31T06:52:24;3.70;;;1.60;;
69854;SDS011;57146;48.140;16.304;2022-07-31T06:54:52;4.10;;;1.58;;
69854;SDS011;57146;48.140;16.304;2022-07-31T06:57:19;4.95;;;1.50;;
69854;SDS011;57146;48.140;16.304;2022-07-31T06:59:46;3.95;;;1.55;;
69854;SDS011;57146;48.140;16.304;2022-07-31T07:02:13;4.57;;;1.73;;
69854;SDS011;57146;48.140;16.304;2022-07-31T07:04:40;4.00;;;1.77;;
69854;SDS011;57146;48.140;16.304;2022-07-31T07:07:27;3.60;;;1.73;;
69854;SDS011;57146;48.140;16.304;2022-07-31T07:09:59;4.28;;;1.60;;
69854;SDS011;57146;48.140;16.304;2022-07-31T07:12:56;5.57;;;1.42;;
69854;SDS011;57146;48.140;16.304;2022-07-31T07:15:23;4.70;;;1.73;;
69854;SDS011;57146;48.140;16.304;2022-07-31T07:17:50;4.73;;;1.37;;
69854;SDS011;57146;48.140;16.304;2022-07-31T07:20:40;4.28;;;1.58;;
69854;SDS011;57146;48.140;16.304;2022-07-31T07:23:07;3.97;;;1.40;;
69854;SDS011;57146;48.140;16.304;2022-07-31T07:25:41;4.35;;;1.60;;
69854;SDS011;57146;48.140;16.304;2022-07-31T07:28:12;5.38;;;1.42;;
69854;SDS011;57146;48.140;16.304;2022-07-31T07:30:59;3.10;;;1.50;;
69854;SDS011;57146;48.140;16.304;2022-07-31T07:33:28;6.57;;;1.92;;
69854;SDS011;57146;48.140;16.304;2022-07-31T07:36:18;4.38;;;2.10;;
69854;SDS011;57146;48.140;16.304;2022-07-31T07:39:02;4.45;;;2.10;;
69854;SDS011;57146;48.140;16.304;2022-07-31T07:41:31;3.58;;;1.80;;
69854;SDS011;57146;48.140;16.304;2022-07-31T07:43:59;4.13;;;2.30;;
69854;SDS011;57146;48.140;16.304;2022-07-31T07:46:27;3.67;;;1.90;;
69854;SDS011;57146;48.140;16.304;2022-07-31T07:48:58;6.38;;;2.20;;
69854;SDS011;57146;48.140;16.304;2022-07-31T07:51:42;4.43;;;1.85;;
69854;SDS011;57146;48.140;16.304;2022-07-31T07:54:37;7.32;;;2.17;;
69854;SDS011;57146;48.140;16.304;2022-07-31T07:57:20;5.20;;;2.27;;
69854;SDS011;57146;48.140;16.304;2022-07-31T08:00:07;5.32;;;2.30;;
69854;SDS011;57146;48.140;16.304;2022-07-31T08:02:41;4.45;;;1.88;;
69854;SDS011;57146;48.140;16.304;2022-07-31T08:05:09;4.35;;;1.75;;
69854;SDS011;57146;48.140;16.304;2022-07-31T08:07:38;6.43;;;2.42;;
69854;SDS011;57146;48.140;16.304;2022-07-31T08:10:28;4.77;;;2.00;;
69854;SDS011;57146;48.140;16.304;2022-07-31T08:13:04;5.07;;;2.47;;
69854;SDS011;57146;48.140;16.304;2022-07-31T08:15:46;4.30;;;2.08;;
69854;SDS011;57146;48.140;16.304;2022-07-31T08:18:25;6.28;;;2.20;;
69854;SDS011;57146;48.140;16.304;2022-07-31T08:20:54;4.57;;;2.30;;
69854;SDS011;57146;48.140;16.304;2022-07-31T08:23:21;3.87;;;1.77;;
69854;SDS011;57146;48.140;16.304;2022-07-31T08:25:48;4.32;;;2.10;;
69854;SDS011;57146;48.140;16.304;2022-07-31T08:28:17;4.05;;;2.00;;
69854;SDS011;57146;48.140;16.304;2022-07-31T08:30:49;4.85;;;2.20;;
69854;SDS011;57146;48.140;16.304;2022-07-31T08:33:19;4.88;;;1.90;;
69854;SDS011;57146;48.140;16.304;2022-07-31T08:35:52;4.37;;;1.60;;
69854;SDS011;57146;48.140;16.304;2022-07-31T08:38:20;5.45;;;1.80;;
69854;SDS011;57146;48.140;16.304;2022-07-31T08:41:07;4.85;;;1.92;;
69854;SDS011;57146;48.140;16.304;2022-07-31T08:43:34;5.43;;;2.20;;
69854;SDS011;57146;48.140;16.304;2022-07-31T08:46:21;4.45;;;1.90;;
69854;SDS011;57146;48.140;16.304;2022-07-31T08:48:50;5.53;;;2.10;;
69854;SDS011;57146;48.140;16.304;2022-07-31T08:51:21;8.90;;;2.03;;
69854;SDS011;57146;48.140;16.304;2022-07-31T08:54:27;3.63;;;1.67;;
69854;SDS011;57146;48.140;16.304;2022-07-31T08:56:55;4.45;;;2.00;;
69854;SDS011;57146;48.140;16.304;2022-07-31T08:59:23;5.18;;;1.90;;
69854;SDS011;57146;48.140;16.304;2022-07-31T09:01:50;6.37;;;2.07;;
69854;SDS011;57146;48.140;16.304;2022-07-31T09:04:17;5.60;;;2.53;;
69854;SDS011;57146;48.140;16.304;2022-07-31T09:06:44;4.93;;;2.30;;
69854;SDS011;57146;48.140;16.304;2022-07-31T09:09:11;4.53;;;2.10;;
69854;SDS011;57146;48.140;16.304;2022-07-31T09:11:47;4.45;;;1.80;;
69854;SDS011;57146;48.140;16.304;2022-07-31T09:14:46;4.17;;;1.90;;
69854;SDS011;57146;48.140;16.304;2022-07-31T09:17:14;4.32;;;2.10;;
69854;SDS011;57146;48.140;16.304;2022-07-31T09:19:42;4.53;;;1.92;;
69854;SDS011;57146;48.140;16.304;2022-07-31T09:22:27;4.13;;;1.92;;
69854;SDS011;57146;48.140;16.304;2022-07-31T09:25:05;5.25;;;2.20;;
69854;SDS011;57146;48.140;16.304;2022-07-31T09:27:34;5.30;;;2.53;;
69854;SDS011;57146;48.140;16.304;2022-07-31T09:30:00;3.75;;;1.88;;
69854;SDS011;57146;48.140;16.304;2022-07-31T09:32:47;4.30;;;2.00;;
69854;SDS011;57146;48.140;16.304;2022-07-31T09:35:34;4.65;;;2.30;;
69854;SDS011;57146;48.140;16.304;2022-07-31T09:38:12;5.57;;;2.60;;
69854;SDS011;57146;48.140;16.304;2022-07-31T09:41:10;5.20;;;2.43;;
69854;SDS011;57146;48.140;16.304;2022-07-31T09:44:08;4.75;;;2.13;;
69854;SDS011;57146;48.140;16.304;2022-07-31T09:46:39;4.30;;;1.90;;
69854;SDS011;57146;48.140;16.304;2022-07-31T09:49:07;3.97;;;1.60;;
69854;SDS011;57146;48.140;16.304;2022-07-31T09:51:40;4.72;;;2.10;;
69854;SDS011;57146;48.140;16.304;2022-07-31T09:54:20;5.37;;;1.80;;
69854;SDS011;57146;48.140;16.304;2022-07-31T09:56:51;5.93;;;1.80;;
69854;SDS011;57146;48.140;16.304;2022-07-31T09:59:20;4.15;;;1.80;;
69854;SDS011;57146;48.140;16.304;2022-07-31T10:01:47;3.72;;;1.63;;
69854;SDS011;57146;48.140;16.304;2022-07-31T10:04:15;4.25;;;1.48;;
69854;SDS011;57146;48.140;16.304;2022-07-31T10:06:48;5.60;;;1.50;;
69854;SDS011;57146;48.140;16.304;2022-07-31T10:09:18;3.03;;;1.30;;
69854;SDS011;57146;48.140;16.304;2022-07-31T10:12:05;3.15;;;1.23;;
69854;SDS011;57146;48.140;16.304;2022-07-31T10:14:42;5.25;;;1.40;;
69854;SDS011;57146;48.140;16.304;2022-07-31T10:17:13;4.82;;;1.48;;
69854;SDS011;57146;48.140;16.304;2022-07-31T10:20:04;4.27;;;1.57;;
69854;SDS011;57146;48.140;16.304;2022-07-31T10:22:48;2.53;;;1.10;;
69854;SDS011;57146;48.140;16.304;2022-07-31T10:25:24;7.57;;;1.60;;
69854;SDS011;57146;48.140;16.304;2022-07-31T10:27:54;3.40;;;0.98;;
69854;SDS011;57146;48.140;16.304;2022-07-31T10:30:22;3.08;;;1.13;;
69854;SDS011;57146;48.140;16.304;2022-07-31T10:32:56;3.80;;;1.10;;
69854;SDS011;57146;48.140;16.304;2022-07-31T10:35:24;3.88;;;1.20;;
69854;SDS011;57146;48.140;16.304;2022-07-31T10:44:38;5.15;;;1.20;;
69854;SDS011;57146;48.140;16.304;2022-07-31T10:47:19;5.30;;;1.40;;
69854;SDS011;57146;48.140;16.304;2022-07-31T10:50:19;3.35;;;1.20;;
69854;SDS011;57146;48.140;16.304;2022-07-31T10:53:08;2.80;;;1.30;;
69854;SDS011;57146;48.140;16.304;2022-07-31T10:56:03;2.72;;;1.05;;
69854;SDS011;57146;48.140;16.304;2022-07-31T11:01:48;3.03;;;1.17;;
69854;SDS011;57146;48.140;16.304;2022-07-31T11:04:44;4.47;;;1.30;;
69854;SDS011;57146;48.140;16.304;2022-07-31T11:07:14;2.40;;;0.98;;
69854;SDS011;57146;48.140;16.304;2022-07-31T11:13:20;3.15;;;1.17;;
69854;SDS011;57146;48.140;16.304;2022-07-31T11:16:05;2.67;;;1.33;;
69854;SDS011;57146;48.140;16.304;2022-07-31T11:18:58;5.57;;;1.13;;
69854;SDS011;57146;48.140;16.304;2022-07-31T11:21:33;3.47;;;1.20;;
69854;SDS011;57146;48.140;16.304;2022-07-31T11:29:24;2.90;;;1.10;;
69854;SDS011;57146;48.140;16.304;2022-07-31T11:32:16;2.67;;;0.93;;
69854;SDS011;57146;48.140;16.304;2022-07-31T11:34:52;3.03;;;1.05;;
69854;SDS011;57146;48.140;16.304;2022-07-31T11:37:21;3.35;;;1.10;;
69854;SDS011;57146;48.140;16.304;2022-07-31T11:39:50;3.65;;;1.00;;
69854;SDS011;57146;48.140;16.304;2022-07-31T11:42:19;2.97;;;1.13;;
69854;SDS011;57146;48.140;16.304;2022-07-31T11:45:02;5.57;;;1.30;;
69854;SDS011;57146;48.140;16.304;2022-07-31T11:47:38;3.20;;;1.05;;
69854;SDS011;57146;48.140;16.304;2022-07-31T11:50:39;3.42;;;1.30;;
69854;SDS011;57146;48.140;16.304;2022-07-31T11:53:07;3.60;;;1.23;;
69854;SDS011;57146;48.140;16.304;2022-07-31T11:55:44;2.80;;;1.20;;
69854;SDS011;57146;48.140;16.304;2022-07-31T11:58:14;4.63;;;1.20;;
69854;SDS011;57146;48.140;16.304;2022-07-31T12:00:56;2.65;;;1.10;;
69854;SDS011;57146;48.140;16.304;2022-07-31T12:03:27;3.75;;;1.25;;
69854;SDS011;57146;48.140;16.304;2022-07-31T12:05:55;3.55;;;1.23;;
69854;SDS011;57146;48.140;16.304;2022-07-31T12:08:23;2.90;;;1.10;;
69854;SDS011;57146;48.140;16.304;2022-07-31T12:10:52;2.65;;;1.02;;
69854;SDS011;57146;48.140;16.304;2022-07-31T12:13:21;2.92;;;1.30;;
69854;SDS011;57146;48.140;16.304;2022-07-31T12:15:56;2.85;;;1.00;;
69854;SDS011;57146;48.140;16.304;2022-07-31T12:18:26;4.03;;;1.13;;
69854;SDS011;57146;48.140;16.304;2022-07-31T12:21:03;2.40;;;1.23;;
69854;SDS011;57146;48.140;16.304;2022-07-31T12:26:09;6.60;;;1.25;;
69854;SDS011;57146;48.140;16.304;2022-07-31T12:28:38;3.33;;;1.10;;
69854;SDS011;57146;48.140;16.304;2022-07-31T12:31:05;3.97;;;1.10;;
69854;SDS011;57146;48.140;16.304;2022-07-31T12:33:39;4.77;;;1.10;;
69854;SDS011;57146;48.140;16.304;2022-07-31T12:36:14;2.90;;;1.20;;
69854;SDS011;57146;48.140;16.304;2022-07-31T12:38:42;3.08;;;1.00;;
69854;SDS011;57146;48.140;16.304;2022-07-31T12:41:14;3.92;;;1.05;;
69854;SDS011;57146;48.140;16.304;2022-07-31T12:43:42;2.90;;;1.00;;
69854;SDS011;57146;48.140;16.304;2022-07-31T12:46:19;2.80;;;1.03;;
69854;SDS011;57146;48.140;16.304;2022-07-31T12:48:47;5.00;;;1.02;;
69854;SDS011;57146;48.140;16.304;2022-07-31T12:51:14;2.38;;;1.25;;
69854;SDS011;57146;48.140;16.304;2022-07-31T12:53:41;3.13;;;1.20;;
69854;SDS011;57146;48.140;16.304;2022-07-31T12:56:11;3.25;;;1.35;;
69854;SDS011;57146;48.140;16.304;2022-07-31T12:58:38;4.37;;;1.30;;
69854;SDS011;57146;48.140;16.304;2022-07-31T13:01:05;3.60;;;1.20;;
69854;SDS011;57146;48.140;16.304;2022-07-31T13:03:32;3.15;;;1.20;;
69854;SDS011;57146;48.140;16.304;2022-07-31T13:06:12;4.40;;;1.00;;
69854;SDS011;57146;48.140;16.304;2022-07-31T13:08:39;3.35;;;1.40;;
69854;SDS011;57146;48.140;16.304;2022-07-31T13:11:06;3.23;;;1.10;;
69854;SDS011;57146;48.140;16.304;2022-07-31T13:13:33;3.60;;;1.02;;
69854;SDS011;57146;48.140;16.304;2022-07-31T13:16:00;3.08;;;1.15;;
69854;SDS011;57146;48.140;16.304;2022-07-31T13:18:27;3.55;;;1.13;;
69854;SDS011;57146;48.140;16.304;2022-07-31T13:20:54;2.70;;;1.13;;
69854;SDS011;57146;48.140;16.304;2022-07-31T13:23:21;3.17;;;1.17;;
69854;SDS011;57146;48.140;16.304;2022-07-31T13:25:48;3.28;;;1.40;;
69854;SDS011;57146;48.140;16.304;2022-07-31T13:28:15;3.22;;;1.25;;
69854;SDS011;57146;48.140;16.304;2022-07-31T13:30:41;4.15;;;1.35;;
69854;SDS011;57146;48.140;16.304;2022-07-31T13:33:08;4.18;;;1.80;;
69854;SDS011;57146;48.140;16.304;2022-07-31T13:35:35;3.60;;;2.00;;
69854;SDS011;57146;48.140;16.304;2022-07-31T13:38:02;3.55;;;1.75;;
69854;SDS011;57146;48.140;16.304;2022-07-31T13:40:29;5.40;;;1.70;;
69854;SDS011;57146;48.140;16.304;2022-07-31T13:42:56;4.03;;;1.48;;
69854;SDS011;57146;48.140;16.304;2022-07-31T13:45:23;3.60;;;1.48;;
69854;SDS011;57146;48.140;16.304;2022-07-31T13:47:50;3.63;;;1.50;;
69854;SDS011;57146;48.140;16.304;2022-07-31T13:50:20;3.95;;;1.50;;
69854;SDS011;57146;48.140;16.304;2022-07-31T13:52:47;4.18;;;1.33;;
69854;SDS011;57146;48.140;16.304;2022-07-31T13:55:13;3.95;;;1.60;;
69854;SDS011;57146;48.140;16.304;2022-07-31T13:57:40;3.15;;;1.90;;
69854;SDS011;57146;48.140;16.304;2022-07-31T14:00:08;4.03;;;1.87;;
69854;SDS011;57146;48.140;16.304;2022-07-31T14:02:35;3.10;;;1.60;;
69854;SDS011;57146;48.140;16.304;2022-07-31T14:05:02;3.88;;;1.73;;
69854;SDS011;57146;48.140;16.304;2022-07-31T14:07:32;4.07;;;1.52;;
69854;SDS011;57146;48.140;16.304;2022-07-31T14:10:17;4.40;;;1.67;;
69854;SDS011;57146;48.140;16.304;2022-07-31T14:12:47;3.23;;;1.60;;
69854;SDS011;57146;48.140;16.304;2022-07-31T14:15:14;3.92;;;1.83;;
69854;SDS011;57146;48.140;16.304;2022-07-31T14:17:44;3.03;;;1.60;;
69854;SDS011;57146;48.140;16.304;2022-07-31T14:20:11;4.20;;;1.50;;
69854;SDS011;57146;48.140;16.304;2022-07-31T14:22:40;3.10;;;1.30;;
69854;SDS011;57146;48.140;16.304;2022-07-31T14:25:08;3.03;;;1.00;;
69854;SDS011;57146;48.140;16.304;2022-07-31T14:27:36;2.75;;;0.93;;
69854;SDS011;57146;48.140;16.304;2022-07-31T14:30:06;2.83;;;1.08;;
69854;SDS011;57146;48.140;16.304;2022-07-31T14:32:34;4.95;;;1.10;;
69854;SDS011;57146;48.140;16.304;2022-07-31T14:35:02;2.70;;;1.10;;
69854;SDS011;57146;48.140;16.304;2022-07-31T14:37:34;2.60;;;1.10;;
69854;SDS011;57146;48.140;16.304;2022-07-31T14:40:01;3.65;;;1.65;;
69854;SDS011;57146;48.140;16.304;2022-07-31T14:42:28;3.13;;;1.80;;
69854;SDS011;57146;48.140;16.304;2022-07-31T14:44:56;3.67;;;1.45;;
69854;SDS011;57146;48.140;16.304;2022-07-31T14:47:23;3.33;;;1.73;;
69854;SDS011;57146;48.140;16.304;2022-07-31T14:49:50;2.80;;;1.50;;
69854;SDS011;57146;48.140;16.304;2022-07-31T14:52:36;4.50;;;1.80;;
69854;SDS011;57146;48.140;16.304;2022-07-31T14:55:03;4.03;;;1.50;;
69854;SDS011;57146;48.140;16.304;2022-07-31T14:57:31;3.58;;;1.65;;
69854;SDS011;57146;48.140;16.304;2022-07-31T14:59:58;4.35;;;1.60;;
69854;SDS011;57146;48.140;16.304;2022-07-31T15:02:25;3.50;;;1.33;;
69854;SDS011;57146;48.140;16.304;2022-07-31T15:04:52;3.67;;;1.50;;
69854;SDS011;57146;48.140;16.304;2022-07-31T15:07:19;4.75;;;1.65;;
69854;SDS011;57146;48.140;16.304;2022-07-31T15:10:07;4.07;;;1.40;;
69854;SDS011;57146;48.140;16.304;2022-07-31T15:12:35;3.45;;;1.70;;
69854;SDS011;57146;48.140;16.304;2022-07-31T15:15:02;3.00;;;1.57;;
69854;SDS011;57146;48.140;16.304;2022-07-31T15:17:29;3.17;;;1.63;;
69854;SDS011;57146;48.140;16.304;2022-07-31T15:19:56;3.90;;;1.80;;
69854;SDS011;57146;48.140;16.304;2022-07-31T15:22:23;3.42;;;1.65;;
69854;SDS011;57146;48.140;16.304;2022-07-31T15:24:50;4.55;;;1.70;;
69854;SDS011;57146;48.140;16.304;2022-07-31T15:27:17;3.10;;;1.80;;
69854;SDS011;57146;48.140;16.304;2022-07-31T15:29:44;3.35;;;2.03;;
69854;SDS011;57146;48.140;16.304;2022-07-31T15:32:31;3.42;;;1.77;;
69854;SDS011;57146;48.140;16.304;2022-07-31T15:34:59;4.90;;;2.00;;
69854;SDS011;57146;48.140;16.304;2022-07-31T15:37:26;3.42;;;1.85;;
69854;SDS011;57146;48.140;16.304;2022-07-31T15:39:52;6.10;;;2.00;;